Time;durP1;ratioP1;P1;durP2;ratioP2;P2;SDS_P1;SDS_P2;PMS_P1;PMS_P2;Temp;Humidity;BMP_temperature;BMP_pressure;BME280_temperature;BME280_humidity;BME280_pressure;Samples;Min_cycle;Max_cycle;Signal;HPM_P1;HPM_P2
2023/12/18 00:00:10;;;;;;;20.58;10.48;;;8.00;1.00;;;;;;5064014;28;20216;-83
2023/12/18 00:02:42;;;;;;;19.08;10.45;;;8.00;1.00;;;;;;5063992;28;20215;-83
2023/12/18 00:05:12;;;;;;;17.77;10.48;;;7.90;1.00;;;;;;5062962;28;20311;-82
2023/12/18 00:07:40;;;;;;;15.77;10.38;;;7.80;1.00;;;;;;5062875;28;20224;-81
2023/12/18 00:10:09;;;;;;;16.42;10.45;;;7.90;1.00;;;;;;5086101;28;20974;-81
2023/12/18 00:12:38;;;;;;;17.33;10.63;;;8.00;1.00;;;;;;5065071;28;20255;-83
2023/12/18 00:15:08;;;;;;;16.38;10.30;;;8.00;1.00;;;;;;5064090;28;20304;-82
2023/12/18 00:17:36;;;;;;;15.63;10.40;;;8.00;1.00;;;;;;5063752;28;20220;-81
2023/12/18 00:20:08;;;;;;;17.20;11.25;;;8.10;1.00;;;;;;5062636;28;20277;-82
2023/12/18 00:22:36;;;;;;;16.52;10.80;;;8.00;1.00;;;;;;5063400;28;20268;-82
2023/12/18 00:25:05;;;;;;;18.35;11.13;;;8.00;1.00;;;;;;5066423;28;20223;-81
2023/12/18 00:27:34;;;;;;;16.23;10.82;;;7.90;1.00;;;;;;5065544;28;20230;-81
2023/12/18 00:30:03;;;;;;;15.15;10.02;;;7.90;1.00;;;;;;5075456;28;20250;-80
2023/12/18 00:32:33;;;;;;;16.95;10.02;;;8.10;1.00;;;;;;5065609;28;20224;-81
2023/12/18 00:35:02;;;;;;;20.02;10.98;;;8.10;1.00;;;;;;5062842;28;20216;-81
2023/12/18 00:37:33;;;;;;;18.92;10.80;;;8.20;1.00;;;;;;5059528;28;20521;-83
2023/12/18 00:40:01;;;;;;;18.13;10.90;;;8.10;1.00;;;;;;5071617;28;20234;-80
2023/12/18 00:42:30;;;;;;;20.35;10.80;;;8.20;1.00;;;;;;5066952;28;20213;-79
2023/12/18 00:44:59;;;;;;;16.95;10.38;;;8.20;1.00;;;;;;5066968;28;20220;-80
2023/12/18 00:47:29;;;;;;;18.83;10.60;;;8.20;1.00;;;;;;5067743;28;20225;-79
2023/12/18 00:49:59;;;;;;;20.33;10.80;;;8.30;1.00;;;;;;5061358;28;20227;-78
2023/12/18 00:52:30;;;;;;;17.60;11.15;;;8.20;1.00;;;;;;5062634;28;20229;-80
2023/12/18 00:55:01;;;;;;;18.65;11.18;;;8.20;1.00;;;;;;5065977;28;20220;-78
2023/12/18 00:57:32;;;;;;;18.25;11.07;;;8.30;1.00;;;;;;5065443;28;20266;-79
2023/12/18 01:00:02;;;;;;;17.25;10.43;;;8.30;1.00;;;;;;5067280;28;20716;-80
2023/12/18 01:02:31;;;;;;;18.45;10.63;;;8.20;1.00;;;;;;5069446;28;20224;-82
2023/12/18 01:05:00;;;;;;;19.65;11.13;;;8.20;1.00;;;;;;5059406;28;20273;-83
2023/12/18 01:07:30;;;;;;;16.63;10.27;;;8.20;1.00;;;;;;5076054;28;20220;-82
2023/12/18 01:10:01;;;;;;;18.55;10.95;;;8.20;1.00;;;;;;5064413;28;20221;-75
2023/12/18 01:12:32;;;;;;;17.20;10.30;;;8.20;1.00;;;;;;5067478;28;20273;-74
2023/12/18 01:15:01;;;;;;;16.10;10.40;;;8.30;1.00;;;;;;5059634;28;20216;-74
2023/12/18 01:17:30;;;;;;;17.45;10.77;;;8.20;1.00;;;;;;5069409;28;20220;-79
2023/12/18 01:20:04;;;;;;;17.63;10.85;;;8.20;1.00;;;;;;5066812;28;20220;-75
2023/12/18 01:22:33;;;;;;;18.42;11.05;;;8.20;1.00;;;;;;5065737;28;20716;-75
2023/12/18 01:25:03;;;;;;;15.57;10.45;;;8.30;1.00;;;;;;5063775;28;20220;-75
2023/12/18 01:27:32;;;;;;;16.17;10.50;;;8.30;1.00;;;;;;5069157;28;25604;-73
2023/12/18 01:30:00;;;;;;;16.27;10.05;;;8.30;1.00;;;;;;5070056;28;20244;-76
2023/12/18 01:32:29;;;;;;;18.00;10.73;;;8.20;1.00;;;;;;5068502;28;20280;-71
2023/12/18 01:34:58;;;;;;;18.20;10.57;;;8.30;1.00;;;;;;5074998;28;20219;-74
2023/12/18 01:37:26;;;;;;;14.95;10.55;;;8.30;1.00;;;;;;5073397;28;20216;-73
2023/12/18 01:39:57;;;;;;;16.15;11.00;;;8.30;1.00;;;;;;5107681;28;20283;-75
2023/12/18 01:42:27;;;;;;;14.23;10.07;;;8.30;1.00;;;;;;5069861;28;20222;-72
2023/12/18 01:44:55;;;;;;;14.10;10.60;;;8.30;1.00;;;;;;5063934;28;20700;-74
2023/12/18 01:47:24;;;;;;;15.57;10.55;;;8.30;1.00;;;;;;5066471;28;20224;-72
2023/12/18 01:49:53;;;;;;;15.82;10.77;;;8.20;1.00;;;;;;5062173;28;20312;-71
2023/12/18 01:52:21;;;;;;;16.25;10.60;;;8.30;1.00;;;;;;5070801;28;20233;-72
2023/12/18 01:54:50;;;;;;;15.60;10.15;;;8.30;1.00;;;;;;5071619;28;20259;-73
2023/12/18 01:57:20;;;;;;;17.17;11.13;;;8.40;1.00;;;;;;5073603;28;20224;-72
2023/12/18 01:59:51;;;;;;;16.17;10.23;;;8.40;1.00;;;;;;5065962;28;20347;-73
2023/12/18 02:02:20;;;;;;;14.57;10.52;;;8.40;1.00;;;;;;5067189;28;20224;-75
2023/12/18 02:04:48;;;;;;;13.27;10.02;;;8.30;1.00;;;;;;5069163;28;20228;-76
2023/12/18 02:07:17;;;;;;;13.75;10.25;;;8.30;1.00;;;;;;5070493;28;20228;-75
2023/12/18 02:09:47;;;;;;;15.82;10.57;;;8.30;1.00;;;;;;5060223;28;20220;-77
2023/12/18 02:12:15;;;;;;;16.95;10.90;;;8.30;1.00;;;;;;5058912;28;20592;-75
2023/12/18 02:14:44;;;;;;;16.33;11.05;;;8.40;1.00;;;;;;5055225;28;20224;-76
2023/12/18 02:17:14;;;;;;;19.60;11.70;;;8.30;1.00;;;;;;5061317;28;20604;-76
2023/12/18 02:19:42;;;;;;;15.02;10.73;;;8.30;1.00;;;;;;5079417;28;20220;-76
2023/12/18 02:22:11;;;;;;;15.35;10.80;;;8.30;1.00;;;;;;5063990;28;20297;-74
2023/12/18 02:24:41;;;;;;;14.40;10.27;;;8.40;1.00;;;;;;5062556;28;20343;-76
2023/12/18 02:27:10;;;;;;;14.93;10.38;;;8.20;1.00;;;;;;5064882;28;20307;-76
2023/12/18 02:29:39;;;;;;;13.82;10.30;;;8.30;1.00;;;;;;5060187;28;20247;-76
2023/12/18 02:32:07;;;;;;;14.48;11.18;;;8.30;1.00;;;;;;5068144;28;20303;-75
2023/12/18 02:34:36;;;;;;;16.17;10.50;;;8.30;1.00;;;;;;5049751;28;20225;-77
2023/12/18 02:37:05;;;;;;;13.82;10.70;;;8.40;1.00;;;;;;5044286;28;20307;-75
2023/12/18 02:39:33;;;;;;;16.38;10.80;;;8.30;1.00;;;;;;5038593;28;20804;-75
2023/12/18 02:42:04;;;;;;;15.85;11.45;;;8.20;1.00;;;;;;5041146;28;20224;-75
2023/12/18 02:44:32;;;;;;;15.93;10.80;;;8.30;1.00;;;;;;5039229;28;20225;-77
2023/12/18 02:47:01;;;;;;;15.40;10.35;;;8.30;1.00;;;;;;5039676;28;20232;-76
2023/12/18 02:49:30;;;;;;;14.13;10.65;;;8.20;1.00;;;;;;5034371;28;20312;-76
2023/12/18 02:51:59;;;;;;;14.30;10.88;;;8.30;1.00;;;;;;5044622;28;20274;-78
2023/12/18 02:54:28;;;;;;;16.40;10.50;;;8.30;1.00;;;;;;5042197;28;20235;-78
2023/12/18 02:56:56;;;;;;;14.65;10.52;;;8.20;1.00;;;;;;5045144;28;20700;-77
2023/12/18 02:59:27;;;;;;;16.67;11.15;;;8.20;1.00;;;;;;5042491;28;20221;-76
2023/12/18 03:01:55;;;;;;;16.67;11.43;;;8.20;1.00;;;;;;5043254;28;20743;-75
2023/12/18 03:04:26;;;;;;;15.73;10.80;;;8.20;1.00;;;;;;5065977;28;21042;-77
2023/12/18 03:06:55;;;;;;;16.55;10.70;;;8.20;1.00;;;;;;5052450;28;20695;-77
2023/12/18 03:09:24;;;;;;;16.90;10.93;;;8.20;1.00;;;;;;5055582;28;20634;-76
2023/12/18 03:11:53;;;;;;;16.45;10.63;;;8.20;1.00;;;;;;5059676;28;20253;-75
2023/12/18 03:14:23;;;;;;;16.67;11.15;;;8.20;1.00;;;;;;5059311;28;20849;-77
2023/12/18 03:16:53;;;;;;;14.80;10.65;;;8.20;1.00;;;;;;5074992;28;20221;-78
2023/12/18 03:19:21;;;;;;;16.45;11.60;;;8.20;1.00;;;;;;5057429;28;20232;-77
2023/12/18 03:21:50;;;;;;;14.13;10.65;;;8.20;1.00;;;;;;5061993;28;20699;-77
2023/12/18 03:24:18;;;;;;;15.32;10.63;;;8.30;1.00;;;;;;5060880;28;20274;-76
2023/12/18 03:26:50;;;;;;;15.23;11.25;;;8.20;1.00;;;;;;5060904;28;20247;-76
2023/12/18 03:29:18;;;;;;;15.98;11.25;;;8.20;1.00;;;;;;5078636;28;20277;-76
2023/12/18 03:31:47;;;;;;;15.60;10.70;;;8.20;1.00;;;;;;5055778;28;20329;-77
2023/12/18 03:34:17;;;;;;;15.70;11.00;;;8.20;1.00;;;;;;5062329;28;20273;-77
2023/12/18 03:36:46;;;;;;;16.27;10.82;;;8.10;1.00;;;;;;5061560;28;20235;-75
2023/12/18 03:39:14;;;;;;;13.55;10.98;;;8.10;1.00;;;;;;5063432;28;20216;-76
2023/12/18 03:41:43;;;;;;;15.27;10.50;;;8.20;1.00;;;;;;5062479;28;20235;-75
2023/12/18 03:44:12;;;;;;;15.38;11.10;;;8.20;1.00;;;;;;5058947;28;20256;-75
2023/12/18 03:46:41;;;;;;;12.13;10.05;;;8.20;1.00;;;;;;5060776;28;20220;-74
2023/12/18 03:49:09;;;;;;;15.68;11.63;;;8.20;1.00;;;;;;5052329;28;20225;-74
2023/12/18 03:51:40;;;;;;;14.02;10.95;;;8.10;1.00;;;;;;5076458;28;20244;-75
2023/12/18 03:54:08;;;;;;;15.82;10.68;;;8.10;1.00;;;;;;5061804;28;20255;-76
2023/12/18 03:56:37;;;;;;;15.30;10.95;;;8.20;1.00;;;;;;5059901;28;20303;-74
2023/12/18 03:59:06;;;;;;;14.15;10.52;;;8.20;1.00;;;;;;5077725;28;20281;-77
2023/12/18 04:01:34;;;;;;;14.27;10.90;;;8.20;1.00;;;;;;5089684;28;20315;-78
2023/12/18 04:04:03;;;;;;;13.88;11.30;;;8.20;1.00;;;;;;5059584;28;20254;-77
2023/12/18 04:06:32;;;;;;;15.48;11.15;;;8.20;1.00;;;;;;5058216;28;20323;-77
2023/12/18 04:09:02;;;;;;;14.20;10.80;;;8.30;1.00;;;;;;5062468;28;20995;-78
2023/12/18 04:11:31;;;;;;;14.20;10.90;;;8.30;1.00;;;;;;5067293;28;20232;-81
2023/12/18 04:13:59;;;;;;;15.02;10.60;;;8.10;1.00;;;;;;5074256;28;20231;-81
2023/12/18 04:16:28;;;;;;;16.65;11.88;;;8.20;1.00;;;;;;5064251;28;20224;-80
2023/12/18 04:18:57;;;;;;;18.38;12.00;;;8.20;1.00;;;;;;5064756;28;20223;-79
2023/12/18 04:21:26;;;;;;;15.82;10.88;;;8.10;1.00;;;;;;5063211;28;20255;-80
2023/12/18 04:23:55;;;;;;;16.77;11.95;;;8.20;1.00;;;;;;5068707;28;20212;-80
2023/12/18 04:26:25;;;;;;;16.27;11.23;;;8.30;1.00;;;;;;5064782;28;20649;-80
2023/12/18 04:28:53;;;;;;;14.07;11.00;;;8.20;1.00;;;;;;5066092;28;20229;-81
2023/12/18 04:31:22;;;;;;;17.23;11.63;;;8.20;1.00;;;;;;5063435;28;20224;-81
2023/12/18 04:33:50;;;;;;;16.23;11.43;;;8.30;1.00;;;;;;5061922;28;20227;-77
2023/12/18 04:36:19;;;;;;;15.18;10.95;;;8.30;1.00;;;;;;5062980;28;20223;-81
2023/12/18 04:38:47;;;;;;;17.65;12.32;;;8.30;1.00;;;;;;5072804;28;20227;-79
2023/12/18 04:41:20;;;;;;;16.50;11.43;;;8.20;1.00;;;;;;5065769;28;20754;-80
2023/12/18 04:43:50;;;;;;;13.98;11.75;;;8.00;1.00;;;;;;5063920;28;20266;-80
2023/12/18 04:46:18;;;;;;;15.63;11.75;;;8.10;1.00;;;;;;5059576;28;20224;-78
2023/12/18 04:48:47;;;;;;;16.58;11.60;;;8.20;1.00;;;;;;5066112;28;20745;-78
2023/12/18 04:51:15;;;;;;;16.25;11.50;;;8.30;1.00;;;;;;5061522;28;20289;-78
2023/12/18 04:53:44;;;;;;;17.30;12.15;;;8.20;1.00;;;;;;5069399;28;20227;-78
2023/12/18 04:56:13;;;;;;;14.93;11.82;;;8.30;1.00;;;;;;5065815;28;20227;-78
2023/12/18 04:58:42;;;;;;;16.83;11.95;;;8.30;1.00;;;;;;5065713;28;20224;-78
2023/12/18 05:01:12;;;;;;;16.20;12.02;;;8.40;1.00;;;;;;5062953;28;20303;-79
2023/12/18 05:03:40;;;;;;;15.18;12.25;;;8.40;1.00;;;;;;5064305;28;20244;-78
2023/12/18 05:06:19;;;;;;;14.40;11.75;;;8.40;1.00;;;;;;5066065;28;20600;-77
2023/12/18 05:08:48;;;;;;;16.33;11.70;;;8.30;1.00;;;;;;5058504;28;20235;-78
2023/12/18 05:11:18;;;;;;;20.63;12.55;;;8.30;1.00;;;;;;5057479;28;20237;-77
2023/12/18 05:13:46;;;;;;;16.95;11.70;;;8.30;1.00;;;;;;5065075;28;20309;-78
2023/12/18 05:16:18;;;;;;;15.45;11.75;;;8.30;1.00;;;;;;5060707;28;20228;-77
2023/12/18 05:18:47;;;;;;;19.40;11.65;;;8.30;1.00;;;;;;5064922;28;20307;-77
2023/12/18 05:21:16;;;;;;;16.98;12.02;;;8.20;1.00;;;;;;5063310;28;20224;-76
2023/12/18 05:23:47;;;;;;;15.80;12.23;;;8.30;1.00;;;;;;5064940;28;20216;-79
2023/12/18 05:26:16;;;;;;;16.63;11.93;;;8.40;1.00;;;;;;5066352;28;20320;-78
2023/12/18 05:28:45;;;;;;;18.60;12.88;;;8.30;1.00;;;;;;5066553;28;20483;-79
2023/12/18 05:31:15;;;;;;;15.02;12.00;;;8.40;1.00;;;;;;5064929;28;20813;-78
2023/12/18 05:33:45;;;;;;;16.95;12.88;;;8.40;1.00;;;;;;5066128;28;20323;-78
2023/12/18 05:36:15;;;;;;;15.13;11.32;;;8.40;1.00;;;;;;5069479;28;20231;-80
2023/12/18 05:38:44;;;;;;;18.40;12.77;;;8.30;1.00;;;;;;5064757;28;20634;-80
2023/12/18 05:41:13;;;;;;;16.73;12.18;;;8.40;1.00;;;;;;5065384;28;20220;-80
2023/12/18 05:43:41;;;;;;;17.00;12.30;;;8.40;1.00;;;;;;5066075;28;20626;-78
2023/12/18 05:46:12;;;;;;;18.33;12.65;;;8.30;1.00;;;;;;5093421;28;20236;-80
2023/12/18 05:48:41;;;;;;;16.20;12.75;;;8.30;1.00;;;;;;5063603;28;20699;-79
2023/12/18 05:51:20;;;;;;;18.65;12.45;;;8.30;1.00;;;;;;5061951;28;20318;-78
2023/12/18 05:53:49;;;;;;;17.15;11.63;;;8.40;1.00;;;;;;5066656;28;20507;-78
2023/12/18 05:56:18;;;;;;;17.80;12.27;;;8.30;1.00;;;;;;5067444;28;20746;-79
2023/12/18 05:58:47;;;;;;;16.25;12.27;;;8.30;1.00;;;;;;5066716;28;20235;-76
2023/12/18 06:01:15;;;;;;;15.10;12.00;;;8.40;1.00;;;;;;5063638;28;20663;-74
2023/12/18 06:03:44;;;;;;;16.52;12.60;;;8.40;1.00;;;;;;5061848;28;20252;-78
2023/12/18 06:06:12;;;;;;;16.67;12.50;;;8.20;1.00;;;;;;5069084;28;20234;-75
2023/12/18 06:08:43;;;;;;;18.42;12.20;;;8.30;1.00;;;;;;5064792;28;20244;-78
2023/12/18 06:11:11;;;;;;;17.35;12.50;;;8.20;1.00;;;;;;5067632;28;20217;-75
2023/12/18 06:13:40;;;;;;;16.63;12.20;;;8.20;1.00;;;;;;5068546;28;20220;-75
2023/12/18 06:16:09;;;;;;;17.52;12.30;;;8.20;1.00;;;;;;5071461;28;20565;-78
2023/12/18 06:18:38;;;;;;;17.95;12.25;;;8.20;1.00;;;;;;5070881;28;20228;-79
2023/12/18 06:21:07;;;;;;;18.15;12.05;;;8.30;1.00;;;;;;5064954;28;20237;-76
2023/12/18 06:23:36;;;;;;;15.65;11.60;;;8.30;1.00;;;;;;5068065;28;20216;-75
2023/12/18 06:26:06;;;;;;;15.05;11.48;;;8.20;1.00;;;;;;5069524;28;20224;-80
2023/12/18 06:28:35;;;;;;;18.50;12.63;;;8.20;1.00;;;;;;5060903;28;20239;-78
2023/12/18 06:31:03;;;;;;;18.02;12.68;;;8.20;1.00;;;;;;5065446;28;20220;-74
2023/12/18 06:33:32;;;;;;;15.75;12.13;;;8.20;1.00;;;;;;5058124;28;20235;-78
2023/12/18 06:36:01;;;;;;;17.90;12.45;;;8.20;1.00;;;;;;5065321;28;20335;-77
2023/12/18 06:38:30;;;;;;;17.10;12.43;;;8.30;1.00;;;;;;5060633;28;20240;-78
2023/12/18 06:40:59;;;;;;;19.98;12.82;;;8.30;1.00;;;;;;5062435;28;20223;-76
2023/12/18 06:43:30;;;;;;;16.83;12.57;;;8.30;1.00;;;;;;5057529;28;20256;-78
2023/12/18 06:45:59;;;;;;;18.48;13.00;;;8.30;1.00;;;;;;5061948;28;20219;-78
2023/12/18 06:48:28;;;;;;;19.80;12.85;;;8.40;1.00;;;;;;5061304;28;20589;-77
2023/12/18 06:50:56;;;;;;;20.05;12.65;;;8.30;1.00;;;;;;5091161;28;20311;-74
2023/12/18 06:53:25;;;;;;;20.15;13.35;;;8.30;1.00;;;;;;5060701;28;20235;-75
2023/12/18 06:55:55;;;;;;;18.15;12.45;;;8.30;1.00;;;;;;5057136;28;20754;-76
2023/12/18 06:58:24;;;;;;;15.98;12.43;;;8.20;1.00;;;;;;5063625;28;20234;-78
2023/12/18 07:00:54;;;;;;;16.63;12.45;;;8.10;1.00;;;;;;5061772;28;20679;-75
2023/12/18 07:03:24;;;;;;;18.80;13.57;;;8.20;1.00;;;;;;5062977;28;20220;-80
2023/12/18 07:05:53;;;;;;;15.55;12.13;;;8.20;1.00;;;;;;5062159;28;20279;-81
2023/12/18 07:08:23;;;;;;;17.70;12.52;;;8.30;1.00;;;;;;5051859;28;20769;-76
2023/12/18 07:10:51;;;;;;;18.08;12.68;;;8.20;1.00;;;;;;5060676;28;20970;-78
2023/12/18 07:13:20;;;;;;;17.75;13.23;;;8.20;1.00;;;;;;5062165;28;20247;-78
2023/12/18 07:15:49;;;;;;;19.85;12.73;;;8.20;1.00;;;;;;5065355;28;20289;-77
2023/12/18 07:18:19;;;;;;;21.50;13.45;;;8.30;1.00;;;;;;5061659;28;20243;-80
2023/12/18 07:20:47;;;;;;;16.90;13.45;;;8.20;1.00;;;;;;5063220;28;20787;-81
2023/12/18 07:23:16;;;;;;;17.48;13.13;;;8.30;1.00;;;;;;5061516;28;20753;-79
2023/12/18 07:25:45;;;;;;;20.00;12.95;;;8.20;1.00;;;;;;5064949;28;20231;-78
2023/12/18 07:28:14;;;;;;;18.98;13.05;;;8.30;1.00;;;;;;5064102;28;20282;-79
2023/12/18 07:30:42;;;;;;;17.42;12.07;;;8.00;1.00;;;;;;5054498;28;20804;-77
2023/12/18 07:33:11;;;;;;;23.30;13.23;;;8.20;1.00;;;;;;5064326;28;20232;-78
2023/12/18 07:35:41;;;;;;;22.08;12.82;;;8.30;1.00;;;;;;5060915;28;20240;-76
2023/12/18 07:38:10;;;;;;;21.55;14.50;;;8.30;1.00;;;;;;5061587;28;20894;-73
2023/12/18 07:40:39;;;;;;;18.83;13.25;;;8.30;1.00;;;;;;5061616;28;20310;-75
2023/12/18 07:43:08;;;;;;;21.35;13.75;;;8.40;1.00;;;;;;5061311;28;20228;-75
2023/12/18 07:45:37;;;;;;;20.00;13.27;;;8.50;1.00;;;;;;5056066;28;20553;-79
2023/12/18 07:48:07;;;;;;;19.77;13.93;;;8.50;1.00;;;;;;5063565;28;20688;-80
2023/12/18 07:50:36;;;;;;;20.58;13.60;;;8.50;1.00;;;;;;5071964;28;20304;-81
2023/12/18 07:53:06;;;;;;;21.40;13.55;;;8.40;1.00;;;;;;5061775;28;20216;-84
2023/12/18 07:55:35;;;;;;;19.33;13.73;;;8.50;1.00;;;;;;5057065;28;20248;-82
2023/12/18 07:58:03;;;;;;;19.20;12.65;;;8.50;1.00;;;;;;5060852;28;20227;-83
2023/12/18 08:00:32;;;;;;;21.50;14.07;;;8.50;1.00;;;;;;5059617;28;20228;-81
2023/12/18 08:03:01;;;;;;;20.17;13.63;;;8.50;1.00;;;;;;5058221;28;20234;-80
2023/12/18 08:05:31;;;;;;;21.00;13.63;;;8.30;1.00;;;;;;5066432;28;20310;-81
2023/12/18 08:08:00;;;;;;;20.35;14.32;;;8.30;1.00;;;;;;5058958;28;20212;-80
2023/12/18 08:10:30;;;;;;;22.20;14.05;;;8.40;1.00;;;;;;5057937;28;20314;-81
2023/12/18 08:12:58;;;;;;;21.73;15.05;;;8.40;1.00;;;;;;5064693;28;20273;-82
2023/12/18 08:15:27;;;;;;;20.17;14.77;;;8.40;1.00;;;;;;5040751;28;20225;-80
2023/12/18 08:17:56;;;;;;;22.25;14.77;;;8.30;1.00;;;;;;5046258;28;20289;-78
2023/12/18 08:20:25;;;;;;;23.63;14.85;;;8.40;1.00;;;;;;5042842;28;20231;-80
2023/12/18 08:22:54;;;;;;;23.88;14.45;;;8.40;1.00;;;;;;5038432;28;20240;-80
2023/12/18 08:25:25;;;;;;;20.35;14.77;;;8.40;1.00;;;;;;5069161;28;20277;-78
2023/12/18 08:27:59;;;;;;;21.35;14.55;;;8.30;1.00;;;;;;5054885;28;20307;-75
2023/12/18 08:30:28;;;;;;;23.15;14.40;;;8.40;1.00;;;;;;5055782;28;20237;-76
2023/12/18 08:32:56;;;;;;;21.13;15.05;;;8.40;1.00;;;;;;5058298;28;20296;-76
2023/12/18 08:35:25;;;;;;;25.85;15.65;;;8.40;1.00;;;;;;5060415;28;20231;-75
2023/12/18 08:37:54;;;;;;;20.80;14.75;;;8.30;1.00;;;;;;5058172;28;20270;-74
2023/12/18 08:40:23;;;;;;;20.02;14.18;;;8.40;1.00;;;;;;5059489;28;20313;-78
2023/12/18 08:42:52;;;;;;;19.42;14.13;;;8.50;1.00;;;;;;5056832;28;20229;-77
2023/12/18 08:45:23;;;;;;;22.20;15.40;;;8.50;1.00;;;;;;5057971;28;20236;-77
2023/12/18 08:47:52;;;;;;;21.58;14.13;;;8.60;1.00;;;;;;5056146;28;20726;-77
2023/12/18 08:50:21;;;;;;;20.02;14.68;;;8.50;1.00;;;;;;5059548;28;20230;-78
2023/12/18 08:52:50;;;;;;;24.00;14.02;;;8.50;1.00;;;;;;5058309;28;20846;-75
2023/12/18 08:55:19;;;;;;;20.35;14.57;;;8.60;1.00;;;;;;5061443;28;20289;-76
2023/12/18 08:57:48;;;;;;;26.88;14.93;;;8.50;1.00;;;;;;5065963;28;20224;-85
2023/12/18 09:00:17;;;;;;;19.52;14.02;;;8.40;1.00;;;;;;5063594;28;20216;-84
2023/12/18 09:02:47;;;;;;;22.65;14.43;;;8.50;1.00;;;;;;5070563;28;20215;-84
2023/12/18 09:05:16;;;;;;;21.52;14.13;;;8.50;1.00;;;;;;5074193;28;20266;-84
2023/12/18 09:07:44;;;;;;;20.25;14.30;;;8.50;1.00;;;;;;5065990;28;20216;-84
2023/12/18 09:10:14;;;;;;;20.38;14.63;;;8.50;1.00;;;;;;5066272;28;20224;-84
2023/12/18 09:12:42;;;;;;;20.45;14.63;;;8.60;1.00;;;;;;5066209;28;21032;-85
2023/12/18 09:15:12;;;;;;;18.45;13.55;;;8.80;1.00;;;;;;5065809;28;20260;-84
2023/12/18 09:17:40;;;;;;;20.38;14.40;;;8.80;1.00;;;;;;5061116;28;20228;-84
2023/12/18 09:20:11;;;;;;;24.65;15.25;;;8.90;1.00;;;;;;5066559;28;20220;-84
2023/12/18 09:22:40;;;;;;;21.70;14.90;;;8.90;1.00;;;;;;5065183;28;20672;-84
2023/12/18 09:25:09;;;;;;;25.38;15.57;;;8.90;1.00;;;;;;5058984;28;20316;-85
2023/12/18 09:27:38;;;;;;;26.70;14.88;;;8.90;1.00;;;;;;5066679;28;20228;-84
2023/12/18 09:30:08;;;;;;;20.52;14.18;;;8.90;1.00;;;;;;5065490;28;20221;-86
2023/12/18 09:32:39;;;;;;;24.55;14.75;;;8.90;1.00;;;;;;5067799;28;20273;-85
2023/12/18 09:35:08;;;;;;;22.13;15.48;;;9.00;1.00;;;;;;5064609;28;20247;-85
2023/12/18 09:37:38;;;;;;;21.42;14.23;;;9.00;1.00;;;;;;5065986;28;20216;-84
2023/12/18 09:40:08;;;;;;;22.92;15.15;;;9.00;1.00;;;;;;5070328;28;20236;-85
2023/12/18 09:42:37;;;;;;;22.60;15.23;;;9.10;1.00;;;;;;5074615;28;20216;-85
2023/12/18 09:45:08;;;;;;;22.70;14.45;;;9.00;1.00;;;;;;5070989;28;20231;-86
2023/12/18 09:47:36;;;;;;;22.27;14.85;;;9.00;1.00;;;;;;5070659;28;20220;-85
2023/12/18 09:50:08;;;;;;;20.30;14.88;;;8.90;1.00;;;;;;5066048;28;20753;-85
2023/12/18 09:52:46;;;;;;;21.20;14.85;;;8.90;1.00;;;;;;5065858;28;20616;-85
2023/12/18 09:55:15;;;;;;;22.45;15.65;;;8.80;1.00;;;;;;5059564;28;20315;-83
2023/12/18 09:57:45;;;;;;;22.73;14.82;;;8.90;1.00;;;;;;5066136;28;20765;-84
2023/12/18 10:00:15;;;;;;;24.70;15.68;;;8.90;1.00;;;;;;5056354;28;20233;-84
2023/12/18 10:02:45;;;;;;;22.67;16.17;;;8.90;1.00;;;;;;5071376;28;20261;-86
2023/12/18 10:05:14;;;;;;;22.33;16.50;;;8.90;1.00;;;;;;5065677;28;20711;-84
2023/12/18 10:07:44;;;;;;;23.80;15.70;;;8.80;1.00;;;;;;5064535;28;20307;-85
2023/12/18 10:10:13;;;;;;;22.58;16.20;;;9.00;1.00;;;;;;5076192;28;20223;-85
2023/12/18 10:12:41;;;;;;;21.75;15.45;;;9.00;1.00;;;;;;5069585;28;20215;-82
2023/12/18 10:15:11;;;;;;;22.05;15.48;;;9.00;1.00;;;;;;5072436;28;20240;-85
2023/12/18 10:17:41;;;;;;;23.55;16.15;;;8.90;1.00;;;;;;5069168;28;20328;-84
2023/12/18 10:20:12;;;;;;;23.05;15.43;;;8.90;1.00;;;;;;5048763;28;20299;-83
2023/12/18 10:22:41;;;;;;;23.55;15.75;;;9.00;1.00;;;;;;5056715;28;20680;-82
2023/12/18 10:25:12;;;;;;;22.27;15.73;;;9.10;1.00;;;;;;5051079;28;20248;-74
2023/12/18 10:27:42;;;;;;;20.48;15.63;;;9.20;1.00;;;;;;5061385;28;20237;-75
2023/12/18 10:30:12;;;;;;;23.85;16.48;;;9.10;1.00;;;;;;5049453;28;20320;-72
2023/12/18 10:32:45;;;;;;;20.65;15.93;;;8.90;1.00;;;;;;5044758;28;20236;-73
2023/12/18 10:35:15;;;;;;;21.50;15.80;;;9.00;1.00;;;;;;5046146;28;20316;-77
2023/12/18 10:37:49;;;;;;;24.55;15.88;;;9.00;1.00;;;;;;5045133;28;20290;-77
2023/12/18 10:40:22;;;;;;;27.95;16.77;;;9.00;1.00;;;;;;5038691;28;20232;-74
2023/12/18 10:43:02;;;;;;;23.42;16.17;;;9.00;1.00;;;;;;5040941;28;20224;-76
2023/12/18 10:45:31;;;;;;;22.88;15.80;;;9.00;1.00;;;;;;5052861;28;20216;-75
2023/12/18 10:48:02;;;;;;;23.98;16.10;;;9.00;1.00;;;;;;5066502;28;20212;-77
2023/12/18 10:50:32;;;;;;;25.63;16.35;;;9.00;1.00;;;;;;5066044;28;20232;-77
2023/12/18 10:53:04;;;;;;;23.08;16.65;;;9.00;1.00;;;;;;5059585;28;20232;-79
2023/12/18 10:55:38;;;;;;;25.27;16.98;;;9.00;1.00;;;;;;5065136;28;20216;-77
2023/12/18 10:58:07;;;;;;;22.92;16.10;;;9.10;1.00;;;;;;5065516;28;20236;-76
2023/12/18 11:00:37;;;;;;;23.15;16.85;;;9.10;1.00;;;;;;5061942;28;20278;-74
2023/12/18 11:03:09;;;;;;;23.00;16.30;;;9.00;1.00;;;;;;5075322;28;20229;-80
2023/12/18 11:05:38;;;;;;;23.42;16.42;;;9.00;1.00;;;;;;5060969;28;20338;-77
2023/12/18 11:08:07;;;;;;;24.90;16.65;;;8.90;1.00;;;;;;5060897;28;20235;-77
2023/12/18 11:10:38;;;;;;;28.77;17.05;;;8.90;1.00;;;;;;5059155;28;20220;-77
2023/12/18 11:13:16;;;;;;;23.38;16.88;;;8.80;1.00;;;;;;5059207;28;20252;-75
2023/12/18 11:15:52;;;;;;;25.05;17.13;;;8.80;1.00;;;;;;5060095;28;20460;-78
2023/12/18 11:18:30;;;;;;;24.90;17.73;;;8.90;1.00;;;;;;5056486;28;20215;-78
2023/12/18 11:21:02;;;;;;;29.05;17.23;;;8.80;1.00;;;;;;5053558;28;20224;-82
2023/12/18 11:23:39;;;;;;;26.55;17.80;;;8.80;1.00;;;;;;5057626;28;20224;-79
2023/12/18 11:26:13;;;;;;;26.17;17.83;;;8.70;1.00;;;;;;5063006;28;20234;-78
2023/12/18 11:28:48;;;;;;;29.20;18.52;;;8.70;1.00;;;;;;5060980;28;21019;-79
2023/12/18 11:31:20;;;;;;;31.50;18.70;;;8.80;1.00;;;;;;5065494;28;20220;-76
2023/12/18 11:34:02;;;;;;;30.00;18.88;;;8.90;1.00;;;;;;5064296;28;20616;-78
2023/12/18 11:36:31;;;;;;;26.55;18.55;;;8.80;1.00;;;;;;5050541;28;20215;-79
2023/12/18 11:39:00;;;;;;;29.52;19.08;;;8.80;1.00;;;;;;5041590;28;20236;-78
2023/12/18 11:41:42;;;;;;;27.63;19.27;;;8.90;1.00;;;;;;5050234;28;20717;-79
2023/12/18 11:44:13;;;;;;;27.92;18.70;;;8.90;1.00;;;;;;5060082;28;20604;-79
2023/12/18 11:46:44;;;;;;;27.25;19.05;;;8.80;1.00;;;;;;5045851;28;20239;-79
2023/12/18 11:49:13;;;;;;;30.90;20.10;;;8.70;1.00;;;;;;5043889;28;20847;-80
2023/12/18 11:51:43;;;;;;;28.13;19.42;;;8.70;1.00;;;;;;5042037;28;20259;-79
2023/12/18 11:54:15;;;;;;;29.08;19.20;;;8.70;1.00;;;;;;5043994;28;20312;-82
2023/12/18 11:56:48;;;;;;;28.67;19.52;;;8.80;1.00;;;;;;5053587;28;20224;-82
2023/12/18 11:59:18;;;;;;;27.70;18.98;;;8.90;1.00;;;;;;5059733;28;25895;-84
2023/12/18 12:01:48;;;;;;;28.02;19.33;;;8.80;1.00;;;;;;5060024;28;20228;-80
2023/12/18 12:04:20;;;;;;;28.95;19.25;;;8.70;1.00;;;;;;5060953;28;20291;-80
2023/12/18 12:06:49;;;;;;;27.95;19.05;;;8.50;1.00;;;;;;5063857;28;20339;-78
2023/12/18 12:09:19;;;;;;;30.58;18.63;;;8.50;1.00;;;;;;5062735;28;20251;-79
2023/12/18 12:11:49;;;;;;;26.52;18.40;;;8.70;1.00;;;;;;5062505;28;20874;-78
2023/12/18 12:14:18;;;;;;;26.55;18.88;;;8.50;1.00;;;;;;5063138;28;20302;-78
2023/12/18 12:17:02;;;;;;;28.67;18.88;;;8.60;1.00;;;;;;5060612;28;20271;-77
2023/12/18 12:19:34;;;;;;;26.27;18.42;;;8.50;1.00;;;;;;5042660;28;20228;-81
2023/12/18 12:22:03;;;;;;;31.27;19.38;;;8.50;1.00;;;;;;5056848;28;20630;-80
2023/12/18 12:24:37;;;;;;;29.38;19.10;;;8.60;1.00;;;;;;5067676;28;20239;-81
2023/12/18 12:27:11;;;;;;;28.80;19.13;;;8.40;1.00;;;;;;5061004;28;20354;-82
2023/12/18 12:29:41;;;;;;;31.05;19.13;;;8.50;1.00;;;;;;5065151;28;20539;-81
2023/12/18 12:32:13;;;;;;;25.88;19.13;;;8.60;1.00;;;;;;5060087;28;20229;-82
2023/12/18 12:34:43;;;;;;;32.90;19.23;;;8.60;1.00;;;;;;5064726;28;20288;-81
2023/12/18 12:37:13;;;;;;;28.50;19.63;;;8.40;1.00;;;;;;5060304;28;20320;-78
2023/12/18 12:40:00;;;;;;;25.67;18.63;;;8.50;1.00;;;;;;5064086;28;20243;-82
2023/12/18 12:42:31;;;;;;;27.48;18.70;;;8.50;1.00;;;;;;5058912;28;20227;-82
2023/12/18 12:45:07;;;;;;;26.73;18.77;;;8.60;1.00;;;;;;5066839;28;20261;-82
2023/12/18 12:47:35;;;;;;;26.33;18.38;;;8.50;1.00;;;;;;5062617;28;20220;-79
2023/12/18 12:50:06;;;;;;;28.05;19.35;;;8.50;1.00;;;;;;5062082;28;20296;-80
2023/12/18 12:52:38;;;;;;;30.13;18.40;;;8.60;1.00;;;;;;5082213;28;20232;-81
2023/12/18 12:55:07;;;;;;;27.63;19.23;;;8.60;1.00;;;;;;5068452;28;20224;-81
2023/12/18 12:57:37;;;;;;;24.33;18.80;;;8.50;1.00;;;;;;5064795;28;20235;-79
2023/12/18 13:00:08;;;;;;;27.83;18.55;;;8.40;1.00;;;;;;5078446;28;20776;-82